Hackensack, Minnesota
Current Conditions -  °F | °C
As of 12:14 AM on Friday 19 Dec 2014 (Local Time) from KPWC Reporting Station
Overcast Overcast  
Wind Chill:   Ceiling: 1200
Heat Index: 18°   Visibility: 10mi
Dew Point: 16°   Wind: 7mph
Humidity: 93%   Direction: 150°SSE
Pressure: 30.23"   Gusts: NA
Location:  46.93°N, 94.52°W
Report Text: KPWC 190614Z AUTO 15006KT 10SM BKN012 OVC060 M08/M09 A3023 RMK AO2
Loading
Personal Weather Stations






























Interactive Weather Map New forecast layout! Learn more

10-Day Weather Forecast

Advertisements
Track Severe Weather on mobile